Aérodrome :
LOGIN :

S'inscrire | Disclaimer

   EN    FR    IT 

 










Légende :    VFR   VFR Marginal   IFR   IFR Intensif   IFR Très Intensif
Visi : 
Plafond : 
>= 8 km
>= 3000ft
5 à 8 km
1000 à 3000 ft
1500m à 5 km
500 à 1000 ft
800 à 1500m
200 à 500 ft
< 800m
< 200 ft
Symboles :   Orages  Brouillard  Fortes neiges  Fortes précipitations  Vent > 20 kt
SIGMETs :   Divers  Orages  Givrage  Turbulence  Onde Orograph.  Cendres Volcan.






- Altitude de l'aérodrome : 1649 ft
- Code IATA : HHN


EDFH - Frankfurt-Hahn Rhineland-Palatinate

DERNIER METAR :
  • 230950Z 28006KT 240V330 9999 FEW018 15/10 Q1016

METARs EXPIRÉS :
  • 230920Z 27006KT 240V310 CAVOK 15/10 Q1016
  • 230850Z 27006KT 230V300 9999 FEW015 14/10 Q1016
  • 230820Z 27005KT 230V320 CAVOK 13/10 Q1016
  • 230750Z 27007KT 240V300 CAVOK 13/10 Q1016
  • 230720Z 28007KT 250V310 CAVOK 13/10 Q1016
  • 230650Z 26007KT 230V290 CAVOK 13/10 Q1016
  • 230620Z 25006KT 220V280 CAVOK 12/10 Q1016
  • 230550Z 23005KT 200V270 CAVOK 12/10 Q1015
  • 230520Z 24007KT CAVOK 11/10 Q1015

TAF TAF EDFH
Valide du 23 à 06h jusqu'au 24 à 06h UTC


230500Z 2306/2406 25005KT CAVOK
PROB40
TEMPO 2311/2319 25015G25KT TSRA SCT020CB
TEMPO 2402/2406 2000 RA BR BKN002



MET'MAP, la Météo Aéronautique d'un coup d'oeil ! - Copyright ORBIFLY Décembre 2007 - Disclaimer

ORBIFLY MET'MAP TEAM :

Programmation & Développement : Alexandra Zaïnal
Sur une idée originale de : Baudouin d'Aumeries
Soutien technique & logistique : Manuel Goepfert
Assistance : Marc-Olivier Méhu




SOURCES & CREDITS :

   NOAA